createdAt,value
2023-04-05T00:00:57.174Z,6.13
2023-04-05T00:03:25.641Z,7.47
2023-04-05T00:05:54.776Z,6.50
2023-04-05T00:08:26.781Z,5.63
2023-04-05T00:10:54.725Z,10.50
2023-04-05T00:13:22.870Z,5.53
2023-04-05T00:15:50.920Z,10.57
2023-04-05T00:18:23.849Z,6.18
2023-04-05T00:20:52.687Z,6.65
2023-04-05T00:23:21.368Z,6.15
2023-04-05T00:25:49.745Z,6.97
2023-04-05T00:28:17.940Z,6.97
2023-04-05T00:30:45.909Z,6.18
2023-04-05T00:33:14.337Z,7.03
2023-04-05T00:35:43.488Z,6.65
2023-04-05T00:38:11.333Z,6.30
2023-04-05T00:40:39.426Z,7.00
2023-04-05T00:43:07.918Z,7.72
2023-04-05T00:45:36.012Z,6.88
2023-04-05T00:48:04.649Z,6.43
2023-04-05T00:50:32.893Z,8.60
2023-04-05T00:53:02.122Z,6.45
2023-04-05T00:55:30.180Z,6.33
2023-04-05T00:57:57.996Z,8.77
2023-04-05T01:00:27.467Z,6.97
2023-04-05T01:03:01.899Z,6.43
2023-04-05T01:05:38.053Z,7.20
2023-04-05T01:08:13.492Z,8.73
2023-04-05T01:10:47.078Z,6.18
2023-04-05T01:13:17.437Z,6.45
2023-04-05T01:18:13.989Z,5.93
2023-04-05T01:20:53.655Z,7.15
2023-04-05T01:23:38.388Z,6.55
2023-04-05T01:26:44.273Z,7.60
2023-04-05T01:29:47.531Z,8.65
2023-04-05T01:32:25.251Z,7.15
2023-04-05T01:35:00.142Z,5.95
2023-04-05T01:37:32.848Z,6.45
2023-04-05T01:40:01.324Z,7.43
2023-04-05T01:42:29.181Z,10.38
2023-04-05T01:44:59.307Z,6.40
2023-04-05T01:49:56.703Z,6.20
2023-04-05T01:52:26.966Z,6.80
2023-04-05T01:54:54.861Z,9.15
2023-04-05T01:57:22.627Z,7.45
2023-04-05T01:59:50.492Z,6.47
2023-04-05T02:02:18.487Z,6.82
2023-04-05T02:04:47.609Z,7.00
2023-04-05T02:07:16.303Z,7.70
2023-04-05T02:09:44.124Z,8.65
2023-04-05T02:12:13.778Z,8.95
2023-04-05T02:14:41.590Z,15.63
2023-04-05T02:17:09.701Z,8.55
2023-04-05T02:19:40.916Z,7.88
2023-04-05T02:22:10.375Z,10.40
2023-04-05T02:24:38.218Z,8.57
2023-04-05T02:27:07.394Z,7.93
2023-04-05T02:29:35.672Z,8.60
2023-04-05T02:32:03.786Z,7.57
2023-04-05T02:34:31.736Z,7.03
2023-04-05T02:36:59.573Z,7.78
2023-04-05T02:39:29.822Z,8.07
2023-04-05T02:44:25.706Z,7.65
2023-04-05T02:46:54.944Z,7.57
2023-04-05T02:49:28.500Z,8.98
2023-04-05T02:51:58.556Z,7.22
2023-04-05T02:54:27.754Z,6.68
2023-04-05T02:57:02.381Z,7.15
2023-04-05T02:59:36.601Z,6.78
2023-04-05T03:02:05.997Z,7.97
2023-04-05T03:04:34.546Z,7.80
2023-04-05T03:09:38.495Z,7.53
2023-04-05T03:12:09.396Z,6.28
2023-04-05T03:14:41.551Z,7.13
2023-04-05T03:17:14.161Z,6.32
2023-04-05T03:19:46.447Z,6.60
2023-04-05T03:22:19.092Z,8.55
2023-04-05T03:24:48.703Z,6.78
2023-04-05T03:27:18.874Z,7.85
2023-04-05T03:30:00.678Z,6.43
2023-04-05T03:32:30.280Z,6.45
2023-04-05T03:35:06.862Z,6.70
2023-04-05T03:37:36.643Z,6.90
2023-04-05T03:40:10.806Z,6.22
2023-04-05T03:42:38.797Z,6.38
2023-04-05T03:45:08.742Z,8.07
2023-04-05T03:47:37.519Z,6.20
2023-04-05T03:50:09.284Z,5.93
2023-04-05T03:52:37.172Z,5.88
2023-04-05T03:55:07.103Z,5.97
2023-04-05T03:57:39.174Z,6.22
2023-04-05T04:00:20.362Z,7.60
2023-04-05T04:03:04.145Z,8.15
2023-04-05T04:05:33.032Z,5.85
2023-04-05T04:08:00.867Z,5.07
2023-04-05T04:10:28.723Z,7.40
2023-04-05T04:13:00.745Z,7.30
2023-04-05T04:15:32.957Z,6.25
2023-04-05T04:18:19.122Z,8.32
2023-04-05T04:21:14.996Z,7.13
2023-04-05T04:24:01.862Z,7.88
2023-04-05T04:26:58.790Z,7.13
2023-04-05T04:29:31.263Z,8.45
2023-04-05T04:32:22.602Z,8.32
2023-04-05T04:35:18.512Z,7.38
2023-04-05T04:38:18.884Z,9.18
2023-04-05T04:41:07.938Z,8.68
2023-04-05T04:43:45.005Z,10.35
2023-04-05T04:46:43.718Z,8.30
2023-04-05T04:49:28.318Z,9.32
2023-04-05T04:51:58.525Z,8.13
2023-04-05T04:54:28.888Z,8.63
2023-04-05T04:56:57.354Z,8.93
2023-04-05T04:59:25.396Z,9.70
2023-04-05T05:01:54.665Z,8.63
2023-04-05T05:04:22.872Z,6.97
2023-04-05T05:06:52.021Z,8.27
2023-04-05T05:09:19.863Z,9.50
2023-04-05T05:11:52.215Z,11.20
2023-04-05T05:14:19.978Z,10.68
2023-04-05T05:16:48.380Z,9.52
2023-04-05T05:19:18.133Z,8.50
2023-04-05T05:21:50.191Z,9.18
2023-04-05T05:24:18.044Z,9.52
2023-04-05T05:26:45.878Z,9.95
2023-04-05T05:29:13.867Z,9.98
2023-04-05T05:31:45.246Z,11.85
2023-04-05T05:34:13.108Z,10.40
2023-04-05T05:36:47.937Z,9.52
2023-04-05T05:39:15.950Z,9.57
2023-04-05T05:41:43.815Z,10.65
2023-04-05T05:44:14.785Z,15.68
2023-04-05T05:46:42.810Z,12.32
2023-04-05T05:49:10.749Z,11.25
2023-04-05T05:51:38.739Z,10.85
2023-04-05T05:54:08.096Z,11.15
2023-04-05T05:56:35.871Z,11.97
2023-04-05T05:59:03.796Z,12.48
2023-04-05T06:01:34.407Z,11.43
2023-04-05T06:04:02.411Z,12.15
2023-04-05T06:06:31.059Z,10.27
2023-04-05T06:08:58.869Z,12.48
2023-04-05T06:11:28.071Z,12.13
2023-04-05T06:13:55.917Z,11.80
2023-04-05T06:16:23.994Z,12.45
2023-04-05T06:18:51.865Z,11.18
2023-04-05T06:21:19.621Z,11.48
2023-04-05T06:23:47.508Z,10.35
2023-04-05T06:26:20.406Z,12.35
2023-04-05T06:28:49.716Z,13.85
2023-04-05T06:31:18.215Z,10.10
2023-04-05T06:33:46.188Z,9.10
2023-04-05T06:36:14.089Z,10.50
2023-04-05T06:38:41.842Z,11.45
2023-04-05T06:41:09.906Z,10.32
2023-04-05T06:43:37.698Z,9.82
2023-04-05T06:46:08.868Z,10.25
2023-04-05T06:48:36.783Z,12.70
2023-04-05T06:51:05.547Z,13.27
2023-04-05T06:53:33.480Z,11.00
2023-04-05T06:56:01.611Z,10.82
2023-04-05T06:58:29.421Z,12.35
2023-04-05T07:00:57.378Z,10.00
2023-04-05T07:03:26.620Z,9.40
2023-04-05T07:05:56.836Z,10.85
2023-04-05T07:08:25.103Z,9.93
2023-04-05T07:10:53.448Z,8.27
2023-04-05T07:13:23.194Z,8.13
2023-04-05T07:15:51.379Z,8.48
2023-04-05T07:18:20.392Z,7.47
2023-04-05T07:20:50.077Z,8.15
2023-04-05T07:23:18.346Z,7.90
2023-04-05T07:25:46.603Z,9.65
2023-04-05T07:28:14.427Z,7.93
2023-04-05T07:30:42.482Z,8.93
2023-04-05T07:33:10.973Z,7.53
2023-04-05T07:35:38.843Z,10.07
2023-04-05T07:38:08.138Z,11.57
2023-04-05T07:40:35.927Z,8.43
2023-04-05T07:43:03.763Z,9.48
2023-04-05T07:45:31.563Z,7.47
2023-04-05T07:47:59.517Z,6.78
2023-04-05T07:50:27.942Z,8.10
2023-04-05T07:52:55.773Z,6.78
2023-04-05T07:55:24.960Z,8.80
2023-04-05T07:57:52.661Z,6.65
2023-04-05T08:00:21.389Z,9.95
2023-04-05T08:02:49.265Z,7.85
2023-04-05T08:05:17.334Z,7.47
2023-04-05T08:07:45.329Z,6.93
2023-04-05T08:10:13.113Z,6.53
2023-04-05T08:12:42.299Z,8.77
2023-04-05T08:15:10.958Z,6.70
2023-04-05T08:17:38.882Z,5.80
2023-04-05T08:20:08.106Z,8.75
2023-04-05T08:22:35.856Z,7.35
2023-04-05T08:25:03.756Z,5.50
2023-04-05T08:27:31.614Z,5.03
2023-04-05T08:30:00.818Z,4.63
2023-04-05T08:32:28.735Z,5.15
2023-04-05T08:34:56.579Z,4.47
2023-04-05T08:37:24.315Z,4.95
2023-04-05T08:39:52.300Z,24.65
2023-04-05T08:42:27.334Z,11.52
2023-04-05T08:44:58.839Z,4.50
2023-04-05T08:47:28.927Z,5.13
2023-04-05T08:49:57.168Z,4.80
2023-04-05T08:52:26.579Z,3.92
2023-04-05T08:54:55.376Z,4.20
2023-04-05T08:57:27.270Z,8.45
2023-04-05T08:59:57.246Z,5.18
2023-04-05T09:02:26.479Z,4.35
2023-04-05T09:04:56.115Z,3.72
2023-04-05T09:07:25.008Z,35.20
2023-04-05T09:09:54.656Z,23.70
2023-04-05T09:12:24.359Z,4.07
2023-04-05T09:14:53.190Z,4.30
2023-04-05T09:17:21.976Z,3.50
2023-04-05T09:19:50.569Z,4.75
2023-04-05T09:22:19.765Z,4.15
2023-04-05T09:24:48.162Z,3.10
2023-04-05T09:27:20.894Z,3.58
2023-04-05T09:29:57.022Z,3.72
2023-04-05T09:32:29.303Z,3.92
2023-04-05T09:35:01.122Z,3.47
2023-04-05T09:37:32.328Z,3.83
2023-04-05T09:40:04.356Z,3.20
2023-04-05T09:42:44.433Z,3.47
2023-04-05T09:45:12.949Z,4.65
2023-04-05T09:47:59.509Z,4.05
2023-04-05T09:50:27.624Z,4.32
2023-04-05T09:53:09.661Z,3.42
2023-04-05T09:55:38.257Z,5.15
2023-04-05T09:58:06.118Z,4.45
2023-04-05T10:00:34.246Z,3.53
2023-04-05T10:03:02.051Z,3.97
2023-04-05T10:05:30.748Z,5.00
2023-04-05T10:07:59.060Z,5.15
2023-04-05T10:10:28.603Z,3.85
2023-04-05T10:12:57.190Z,4.57
2023-04-05T10:15:27.953Z,4.53
2023-04-05T10:18:03.724Z,5.43
2023-04-05T10:20:35.930Z,12.25
2023-04-05T10:23:10.136Z,3.85
2023-04-05T10:25:52.565Z,3.80
2023-04-05T10:28:31.486Z,4.57
2023-04-05T10:31:10.047Z,4.32
2023-04-05T10:33:42.701Z,4.57
2023-04-05T10:36:18.272Z,3.65
2023-04-05T10:39:00.479Z,4.93
2023-04-05T10:41:34.644Z,4.05
2023-04-05T10:44:14.860Z,3.75
2023-04-05T10:46:47.537Z,4.57
2023-04-05T10:49:23.075Z,4.07
2023-04-05T10:51:51.909Z,4.78
2023-04-05T10:54:20.903Z,3.95
2023-04-05T10:56:51.109Z,5.53
2023-04-05T10:59:19.577Z,4.75
2023-04-05T11:01:48.460Z,4.85
2023-04-05T11:04:17.461Z,4.65
2023-04-05T11:06:47.890Z,4.40
2023-04-05T11:09:18.122Z,4.30
2023-04-05T11:11:47.300Z,3.38
2023-04-05T11:14:25.728Z,4.05
2023-04-05T11:16:57.007Z,4.88
2023-04-05T11:19:49.543Z,3.78
2023-04-05T11:22:27.272Z,3.47
2023-04-05T11:24:58.175Z,5.43
2023-04-05T11:27:28.080Z,3.67
2023-04-05T11:29:58.994Z,4.63
2023-04-05T11:32:40.285Z,3.70
2023-04-05T11:35:13.697Z,3.67
2023-04-05T11:38:06.430Z,3.55
2023-04-05T11:40:35.313Z,5.68
2023-04-05T11:43:05.945Z,4.00
2023-04-05T11:45:36.603Z,3.88
2023-04-05T11:48:07.239Z,4.20
2023-04-05T11:50:37.132Z,3.45
2023-04-05T11:53:12.514Z,4.60
2023-04-05T11:55:42.009Z,5.78
2023-04-05T11:58:17.236Z,3.33
2023-04-05T12:00:47.461Z,4.03
2023-04-05T12:03:16.158Z,4.20
2023-04-05T12:05:51.645Z,3.65
2023-04-05T12:08:20.184Z,3.60
2023-04-05T12:10:56.070Z,4.40
2023-04-05T12:13:28.959Z,4.47
2023-04-05T12:16:00.730Z,3.75
2023-04-05T12:18:29.712Z,5.05
2023-04-05T12:20:57.719Z,4.88
2023-04-05T12:23:26.900Z,3.72
2023-04-05T12:25:56.662Z,5.65
2023-04-05T12:28:24.853Z,3.70
2023-04-05T12:30:54.156Z,3.60
2023-04-05T12:33:31.065Z,3.63
2023-04-05T12:35:59.459Z,4.70
2023-04-05T12:38:28.367Z,3.75
2023-04-05T12:41:01.191Z,3.80
2023-04-05T12:43:39.822Z,5.25
2023-04-05T12:46:10.904Z,3.97
2023-04-05T12:48:42.777Z,4.85
2023-04-05T12:51:16.838Z,4.00
2023-04-05T12:53:48.254Z,4.35
2023-04-05T12:56:17.635Z,3.78
2023-04-05T12:58:50.410Z,5.37
2023-04-05T13:01:19.208Z,6.03
2023-04-05T13:03:49.959Z,4.03
2023-04-05T13:06:17.936Z,4.53
2023-04-05T13:08:45.729Z,5.25
2023-04-05T13:11:13.518Z,3.58
2023-04-05T13:13:41.380Z,4.78
2023-04-05T13:16:09.250Z,4.13
2023-04-05T13:18:37.146Z,4.88
2023-04-05T13:21:09.344Z,4.03
2023-04-05T13:23:37.511Z,3.95
2023-04-05T13:26:06.089Z,4.00
2023-04-05T13:28:34.212Z,7.97
2023-04-05T13:31:02.192Z,4.75
2023-04-05T13:33:30.044Z,4.20
2023-04-05T13:35:57.987Z,4.28
2023-04-05T13:38:27.211Z,3.95
2023-04-05T13:40:55.392Z,4.35
2023-04-05T13:43:23.666Z,4.00
2023-04-05T13:45:51.703Z,4.00
2023-04-05T13:48:19.402Z,3.95
2023-04-05T13:50:47.177Z,4.80
2023-04-05T13:53:15.070Z,4.07
2023-04-05T13:55:44.209Z,4.53
2023-04-05T13:58:14.128Z,4.43
2023-04-05T14:00:42.588Z,5.45
2023-04-05T14:03:10.925Z,4.30
2023-04-05T14:05:38.816Z,3.95
2023-04-05T14:08:06.610Z,14.60
2023-04-05T14:10:34.420Z,5.20
2023-04-05T14:13:03.745Z,4.18
2023-04-05T14:15:31.852Z,4.00
2023-04-05T14:17:59.787Z,4.25
2023-04-05T14:20:27.711Z,4.93
2023-04-05T14:22:55.596Z,3.78
2023-04-05T14:25:23.511Z,4.57
2023-04-05T14:27:51.392Z,4.55
2023-04-05T14:30:21.077Z,4.25
2023-04-05T14:32:49.038Z,4.72
2023-04-05T14:35:16.972Z,4.35
2023-04-05T14:37:44.912Z,5.35
2023-04-05T14:40:13.125Z,4.10
2023-04-05T14:42:49.343Z,4.10
2023-04-05T14:45:17.985Z,4.45
2023-04-05T14:47:47.407Z,4.70
2023-04-05T14:50:15.593Z,6.27
2023-04-05T14:52:43.445Z,15.10
2023-04-05T14:55:13.402Z,7.78
2023-04-05T14:57:41.469Z,6.30
2023-04-05T15:00:10.999Z,5.57
2023-04-05T15:02:39.073Z,6.23
2023-04-05T15:05:09.199Z,4.40
2023-04-05T15:07:37.126Z,4.82
2023-04-05T15:10:05.770Z,4.47
2023-04-05T15:12:33.911Z,4.53
2023-04-05T15:15:02.296Z,7.05
2023-04-05T15:17:30.618Z,4.53
2023-04-05T15:19:58.514Z,6.25
2023-04-05T15:22:27.896Z,6.18
2023-04-05T15:24:57.101Z,4.35
2023-04-05T15:27:24.988Z,4.28
2023-04-05T15:29:52.953Z,4.63
2023-04-05T15:32:20.850Z,4.25
2023-04-05T15:34:48.978Z,6.55
2023-04-05T15:37:16.836Z,5.72
2023-04-05T15:39:46.126Z,7.13
2023-04-05T15:42:15.590Z,6.93
2023-04-05T15:44:43.944Z,6.25
2023-04-05T15:47:12.089Z,4.43
2023-04-05T15:49:40.064Z,6.25
2023-04-05T15:52:08.744Z,9.93
2023-04-05T15:54:36.758Z,4.93
2023-04-05T15:57:06.308Z,4.30
2023-04-05T15:59:34.207Z,6.03
2023-04-05T16:02:02.301Z,4.93
2023-04-05T16:04:30.806Z,4.30
2023-04-05T16:06:58.691Z,4.45
2023-04-05T16:09:26.677Z,7.60
2023-04-05T16:11:54.517Z,5.25
2023-04-05T16:14:23.754Z,4.28
2023-04-05T16:16:54.269Z,4.80
2023-04-05T16:19:23.454Z,11.70
2023-04-05T16:21:52.757Z,4.15
2023-04-05T16:24:21.208Z,4.07
2023-04-05T16:26:49.278Z,5.68
2023-04-05T16:29:17.157Z,4.22
2023-04-05T16:31:47.408Z,4.82
2023-04-05T16:34:15.686Z,4.30
2023-04-05T16:36:43.762Z,4.30
2023-04-05T16:39:12.217Z,4.22
2023-04-05T16:41:40.216Z,4.85
2023-04-05T16:44:08.147Z,4.90
2023-04-05T16:46:36.062Z,4.65
2023-04-05T16:49:05.761Z,6.53
2023-04-05T16:51:35.588Z,5.00
2023-04-05T16:54:03.682Z,4.18
2023-04-05T16:56:31.574Z,4.70
2023-04-05T16:58:59.705Z,5.20
2023-04-05T17:01:28.754Z,4.95
2023-04-05T17:03:59.704Z,6.55
2023-04-05T17:06:29.383Z,5.40
2023-04-05T17:08:57.301Z,5.10
2023-04-05T17:11:25.158Z,5.55
2023-04-05T17:13:53.374Z,4.10
2023-04-05T17:16:21.464Z,6.32
2023-04-05T17:18:49.487Z,4.40
2023-04-05T17:21:18.232Z,4.03
2023-04-05T17:23:47.501Z,4.50
2023-04-05T17:26:15.454Z,4.75
2023-04-05T17:28:43.412Z,4.57
2023-04-05T17:31:12.075Z,5.45
2023-04-05T17:33:40.359Z,5.03
2023-04-05T17:36:08.756Z,4.07
2023-04-05T17:38:36.671Z,5.10
2023-04-05T17:41:06.034Z,4.85
2023-04-05T17:43:34.042Z,6.40
2023-04-05T17:46:02.168Z,4.25
2023-04-05T17:48:30.445Z,4.28
2023-04-05T17:50:58.366Z,6.78
2023-04-05T17:53:26.856Z,5.43
2023-04-05T17:55:56.724Z,6.97
2023-04-05T17:58:26.203Z,4.95
2023-04-05T18:00:54.154Z,6.30
2023-04-05T18:03:22.133Z,6.05
2023-04-05T18:05:52.216Z,5.90
2023-04-05T18:08:20.647Z,8.30
2023-04-05T18:10:50.686Z,6.75
2023-04-05T18:13:19.459Z,7.50
2023-04-05T18:15:52.738Z,7.88
2023-04-05T18:18:20.899Z,6.60
2023-04-05T18:20:50.541Z,7.78
2023-04-05T18:23:18.828Z,8.95
2023-04-05T18:25:46.775Z,6.60
2023-04-05T18:28:22.414Z,6.28
2023-04-05T18:30:52.968Z,5.80
2023-04-05T18:33:22.487Z,6.82
2023-04-05T18:35:50.932Z,6.60
2023-04-05T18:38:19.065Z,8.38
2023-04-05T18:40:47.128Z,5.30
2023-04-05T18:43:15.299Z,5.75
2023-04-05T18:45:43.277Z,6.78
2023-04-05T18:48:13.267Z,6.38
2023-04-05T18:50:41.324Z,6.95
2023-04-05T18:53:09.377Z,5.95
2023-04-05T18:55:37.777Z,4.85
2023-04-05T18:58:05.889Z,8.82
2023-04-05T19:00:34.962Z,9.93
2023-04-05T19:03:02.980Z,12.38
2023-04-05T19:05:32.409Z,9.27
2023-04-05T19:08:00.511Z,7.33
2023-04-05T19:10:28.517Z,9.75
2023-04-05T19:12:56.595Z,6.88
2023-04-05T19:15:24.499Z,6.38
2023-04-05T19:17:52.417Z,7.28
2023-04-05T19:20:20.446Z,6.68
2023-04-05T19:22:49.884Z,7.82
2023-04-05T19:25:18.278Z,8.88
2023-04-05T19:27:46.331Z,10.15
2023-04-05T19:30:14.508Z,9.60
2023-04-05T19:32:42.554Z,6.95
2023-04-05T19:35:10.915Z,9.45
2023-04-05T19:37:39.134Z,6.35
2023-04-05T19:40:09.956Z,6.63
2023-04-05T19:42:37.970Z,9.88
2023-04-05T19:45:09.330Z,8.05
2023-04-05T19:47:43.747Z,6.35
2023-04-05T19:50:44.205Z,7.25
2023-04-05T19:56:01.375Z,8.65
2023-04-05T19:58:29.288Z,9.00
2023-04-05T20:00:57.288Z,11.55
2023-04-05T20:03:30.463Z,11.05
2023-04-05T20:06:06.232Z,12.18
2023-04-05T20:08:35.473Z,9.60
2023-04-05T20:11:10.682Z,11.13
2023-04-05T20:13:43.424Z,9.85
2023-04-05T20:16:13.316Z,8.90
2023-04-05T20:18:44.995Z,10.40
2023-04-05T20:21:13.316Z,8.25
2023-04-05T20:23:42.826Z,6.65
2023-04-05T20:26:15.368Z,6.32
2023-04-05T20:28:44.562Z,7.20
2023-04-05T20:31:21.020Z,7.05
2023-04-05T20:33:50.854Z,6.07
2023-04-05T20:36:21.110Z,6.05
2023-04-05T20:38:50.423Z,7.47
2023-04-05T20:41:21.136Z,6.43
2023-04-05T20:46:17.585Z,7.80
2023-04-05T20:48:46.837Z,7.88
2023-04-05T20:51:16.167Z,8.93
2023-04-05T20:53:44.612Z,9.02
2023-04-05T20:56:13.411Z,8.77
2023-04-05T20:58:42.963Z,9.82
2023-04-05T21:01:11.686Z,9.88
2023-04-05T21:03:41.572Z,11.15
2023-04-05T21:06:11.081Z,11.77
2023-04-05T21:08:41.257Z,10.95
2023-04-05T21:11:10.727Z,9.80
2023-04-05T21:13:39.141Z,9.32
2023-04-05T21:16:09.459Z,9.38
2023-04-05T21:18:37.509Z,8.20
2023-04-05T21:21:06.015Z,7.18
2023-04-05T21:23:34.435Z,7.50
2023-04-05T21:26:04.203Z,7.97
2023-04-05T21:28:32.334Z,8.90
2023-04-05T21:31:00.336Z,9.02
2023-04-05T21:33:29.794Z,11.82
2023-04-05T21:35:57.761Z,11.10
2023-04-05T21:38:25.794Z,10.18
2023-04-05T21:40:55.332Z,10.55
2023-04-05T21:43:23.785Z,10.40
2023-04-05T21:45:52.858Z,11.50
2023-04-05T21:48:21.205Z,11.50
2023-04-05T21:50:50.584Z,10.20
2023-04-05T21:53:18.828Z,11.23
2023-04-05T21:55:46.804Z,9.43
2023-04-05T21:58:14.741Z,10.27
2023-04-05T22:00:42.778Z,10.52
2023-04-05T22:03:10.742Z,9.02
2023-04-05T22:09:52.517Z,9.27
2023-04-05T22:12:22.239Z,9.48
2023-04-05T22:14:50.173Z,8.95
2023-04-05T22:17:18.570Z,9.57
2023-04-05T22:19:47.519Z,10.90
2023-04-05T22:22:15.627Z,11.05
2023-04-05T22:24:43.888Z,11.48
2023-04-05T22:27:13.503Z,10.23
2023-04-05T22:29:41.717Z,10.38
2023-04-05T22:32:09.823Z,11.32
2023-04-05T22:34:37.815Z,9.98
2023-04-05T22:37:05.912Z,10.13
2023-04-05T22:39:33.813Z,9.38
2023-04-05T22:42:01.765Z,9.23
2023-04-05T22:44:31.312Z,9.43
2023-04-05T22:46:59.315Z,9.55
2023-04-05T22:49:27.294Z,10.75
2023-04-05T22:51:55.266Z,9.40
2023-04-05T22:54:23.224Z,11.30
2023-04-05T22:56:51.129Z,11.48
2023-04-05T22:59:19.150Z,11.77
2023-04-05T23:01:48.643Z,11.95
2023-04-05T23:04:16.784Z,11.82
2023-04-05T23:06:44.810Z,11.32
2023-04-05T23:09:12.776Z,10.80
2023-04-05T23:11:40.863Z,10.30
2023-04-05T23:14:09.180Z,10.45
2023-04-05T23:16:37.429Z,10.25
2023-04-05T23:19:07.210Z,9.95
2023-04-05T23:24:03.308Z,9.85
2023-04-05T23:26:31.269Z,9.85
2023-04-05T23:28:59.198Z,10.57
2023-04-05T23:31:27.217Z,10.35
2023-04-05T23:33:55.736Z,10.60
2023-04-05T23:36:25.171Z,11.07
2023-04-05T23:38:53.056Z,12.05
2023-04-05T23:41:21.574Z,12.00
2023-04-05T23:43:49.494Z,12.07
2023-04-05T23:46:17.589Z,12.57
2023-04-05T23:48:45.575Z,11.40
2023-04-05T23:51:13.529Z,13.40
2023-04-05T23:53:42.836Z,12.60
2023-04-05T23:56:10.882Z,12.57
2023-04-05T23:58:38.900Z,12.85
